Lubbock Preston Smith International Airport
KLBB : now visible

Airfield :











YOU CAN JOIN US ON...

 
LOGIN :

Register | Disclaimer

   EN    FR    IT 

 









Legend :    VFR   Marginal VFR   IFR   Intensive IFR   Very Intensive IFR
Visi :
Ceiling :
>= 8 km
>= 3000ft
5 to 8 km
1000 to 3000 ft
1500m to 5 km
500 to 1000 ft
800 to 1500m
200 to 500 ft
< 800m
< 200 ft
Symbols :   Thunderstorms  Fog  Heavy snow  Heavy precipitations  Wind > 20 kt







- Airport Elevation : 3282 ft
- IATA code : LBB


KLBB - Lubbock Preston Smith International

CURRENT METAR :
  • 201253Z 14015KT 6SM BR OVC007 18/17 A2976 RMK AO2 RAB03E20 CIG 005V009 SLP031 P0000 T01830167 $

EXPIRED METARs :
  • 201220Z 14016KT 8SM BKN008 BKN012 OVC016 18/16 A2976 RMK AO2 RAB03E20 P0000 T01780161 $
  • 201209Z 13014KT 9SM -RA BKN010 OVC015 18/16 A2976 RMK AO2 RAB03 CIG 008V013 P0000 T01780161 $
  • 201153Z 13012KT 9SM BKN016 OVC040 17/16 A2976 RMK AO2 RAB21E40 SLP036 P0000 60000 T01720161 10183 20172 58003 $
  • 201053Z 15016KT 10SM BKN011 OVC015 18/15 A2977 RMK AO2 SLP036 T01830150 $

TAF KLBB
Valid from the 20 at 12:00 until the 21 at 12:00 UTC


201122Z 2012/2112 15016KT P6SM BKN011 OVC015
TEMPO 2013/2016 VRB45KT 1SM +TSRAGR BKN020CB
FM201600 19020KT 6SM HZ BKN030
FM202200 21020G30KT 6SM HZ SCT030
PROB30 2022/2104 2SM TSRA SCT030CB SCT250
FM210500 27020KT P6SM FEW150 BKN250
KZFW FIR / North America



MET'MAP, your aeronautical weather chart ! - Copyright ORBIFLY December 2007 - Disclaimer

ORBIFLY MET'MAP TEAM :

Programming & Development : Alexandra Zaïnal
Concept & Development : Baudouin d'Aumeries
Co-Development & Prog : Marc-Olivier Méhu
Technical & hardware support : Manuel Goepfert

Contact : metmap@orbifly.com




SOURCES & CREDITS :

   NOAA       Earth
Advisory